Time;durP1;ratioP1;P1;durP2;ratioP2;P2;SDS_P1;SDS_P2;PMS_P1;PMS_P2;Temp;Humidity;BMP_temperature;BMP_pressure;BME280_temperature;BME280_humidity;BME280_pressure;Samples;Min_cycle;Max_cycle;Signal;HPM_P1;HPM_P2
2022/05/11 00:02:11;;;;;;;15.82;10.43;;;;;;;;;;4936028;29;20118;-69
2022/05/11 00:04:39;;;;;;;14.30;11.13;;;;;;;;;;4935503;29;20130;-69
2022/05/11 00:07:11;;;;;;;15.50;11.77;;;;;;;;;;4936219;29;20509;-69
2022/05/11 00:09:39;;;;;;;15.82;11.05;;;;;;;;;;4936107;29;20138;-69
2022/05/11 00:12:07;;;;;;;13.15;10.45;;;;;;;;;;4936014;29;20040;-69
2022/05/11 00:14:36;;;;;;;16.45;11.90;;;;;;;;;;4936071;29;20479;-69
2022/05/11 00:17:04;;;;;;;16.92;11.75;;;;;;;;;;4936284;29;20378;-69
2022/05/11 00:19:31;;;;;;;18.08;12.18;;;;;;;;;;4935582;29;20065;-69
2022/05/11 00:22:00;;;;;;;15.50;11.93;;;;;;;;;;4936421;29;20056;-69
2022/05/11 00:24:29;;;;;;;14.80;11.85;;;;;;;;;;4936426;29;20051;-69
2022/05/11 00:26:58;;;;;;;15.43;11.43;;;;;;;;;;4936079;29;20044;-69
2022/05/11 00:29:28;;;;;;;15.10;12.02;;;;;;;;;;4935691;29;20054;-69
2022/05/11 00:31:55;;;;;;;16.00;11.90;;;;;;;;;;4936107;29;20071;-69
2022/05/11 00:34:24;;;;;;;16.42;12.07;;;;;;;;;;4935817;29;20118;-69
2022/05/11 00:36:53;;;;;;;18.75;13.57;;;;;;;;;;4935943;29;20042;-69
2022/05/11 00:39:21;;;;;;;18.25;12.57;;;;;;;;;;4936302;29;20099;-69
2022/05/11 00:41:51;;;;;;;15.77;12.15;;;;;;;;;;4935859;29;20043;-69
2022/05/11 00:44:20;;;;;;;17.27;12.45;;;;;;;;;;4935934;29;20458;-69
2022/05/11 00:46:57;;;;;;;16.27;12.60;;;;;;;;;;4936121;29;20482;-69
2022/05/11 00:49:36;;;;;;;17.98;12.35;;;;;;;;;;4935511;29;20055;-68
2022/05/11 00:52:09;;;;;;;16.17;11.88;;;;;;;;;;4935628;29;20099;-68
2022/05/11 00:54:39;;;;;;;18.40;11.85;;;;;;;;;;4935674;29;20491;-68
2022/05/11 00:57:12;;;;;;;16.65;12.43;;;;;;;;;;4935664;29;20078;-69
2022/05/11 00:59:43;;;;;;;18.77;12.05;;;;;;;;;;4935817;29;20087;-68
2022/05/11 01:02:11;;;;;;;19.05;11.75;;;;;;;;;;4935582;29;20071;-69
2022/05/11 01:04:41;;;;;;;15.00;11.45;;;;;;;;;;4935567;29;20047;-68
2022/05/11 01:07:11;;;;;;;15.93;11.63;;;;;;;;;;4935522;29;20052;-69
2022/05/11 01:09:40;;;;;;;19.27;11.75;;;;;;;;;;4936012;29;20489;-69
2022/05/11 01:12:37;;;;;;;16.02;11.80;;;;;;;;;;4935387;29;20122;-69
2022/05/11 01:18:24;;;;;;;15.80;12.35;;;;;;;;;;4939090;29;20048;-69
2022/05/11 01:21:17;;;;;;;16.42;11.63;;;;;;;;;;4938922;29;20051;-69
2022/05/11 01:23:48;;;;;;;14.00;12.10;;;;;;;;;;4938965;29;20071;-68
2022/05/11 01:26:16;;;;;;;19.65;12.27;;;;;;;;;;4938800;29;20047;-68
2022/05/11 01:28:45;;;;;;;15.85;12.32;;;;;;;;;;4938915;29;20122;-69
2022/05/11 01:31:14;;;;;;;16.05;12.25;;;;;;;;;;4938690;29;20062;-68
2022/05/11 01:33:43;;;;;;;14.73;12.15;;;;;;;;;;4938827;29;20035;-69
2022/05/11 01:36:30;;;;;;;15.43;12.48;;;;;;;;;;4938604;29;20043;-68
2022/05/11 01:39:04;;;;;;;15.93;11.95;;;;;;;;;;4938777;29;20047;-68
2022/05/11 01:41:36;;;;;;;20.83;12.93;;;;;;;;;;4938554;29;20139;-69
2022/05/11 01:44:04;;;;;;;14.23;11.77;;;;;;;;;;4938625;29;20052;-69
2022/05/11 01:46:34;;;;;;;15.15;12.65;;;;;;;;;;4938807;29;20055;-69
2022/05/11 01:49:04;;;;;;;15.13;11.75;;;;;;;;;;4938786;29;20044;-69
2022/05/11 01:51:32;;;;;;;16.52;12.77;;;;;;;;;;4939045;29;20054;-68
2022/05/11 01:54:01;;;;;;;15.10;12.48;;;;;;;;;;4938643;29;20047;-69
2022/05/11 01:56:30;;;;;;;13.60;12.00;;;;;;;;;;4938406;29;20103;-69
2022/05/11 01:59:00;;;;;;;16.20;12.32;;;;;;;;;;4921801;29;20094;-68
2022/05/11 02:01:29;;;;;;;15.45;12.32;;;;;;;;;;4938176;29;20044;-68
2022/05/11 02:04:00;;;;;;;18.88;12.43;;;;;;;;;;4938240;29;20466;-69
2022/05/11 02:09:16;;;;;;;23.73;12.57;;;;;;;;;;4937775;29;20502;-69
2022/05/11 02:11:45;;;;;;;18.17;12.35;;;;;;;;;;4938209;29;20044;-69
2022/05/11 02:14:13;;;;;;;16.77;11.88;;;;;;;;;;4938473;29;20039;-68
2022/05/11 02:16:42;;;;;;;17.13;12.57;;;;;;;;;;4938809;29;20046;-68
2022/05/11 02:19:12;;;;;;;19.63;14.02;;;;;;;;;;4938002;29;20107;-69
2022/05/11 02:21:40;;;;;;;16.42;13.30;;;;;;;;;;4938147;29;20051;-68
2022/05/11 02:24:10;;;;;;;16.20;12.93;;;;;;;;;;4937917;29;20055;-68
2022/05/11 02:26:40;;;;;;;16.42;13.07;;;;;;;;;;4937035;29;20052;-69
2022/05/11 02:29:07;;;;;;;17.02;12.55;;;;;;;;;;4937960;29;20044;-68
2022/05/11 02:31:35;;;;;;;17.35;13.48;;;;;;;;;;4937587;29;20044;-68
2022/05/11 02:34:06;;;;;;;15.70;12.93;;;;;;;;;;4937993;29;20044;-68
2022/05/11 02:36:34;;;;;;;17.25;12.82;;;;;;;;;;4937927;29;20090;-68
2022/05/11 02:39:03;;;;;;;18.33;12.98;;;;;;;;;;4938261;29;20044;-69
2022/05/11 02:41:31;;;;;;;18.98;13.20;;;;;;;;;;4937282;29;20099;-69
2022/05/11 02:43:59;;;;;;;17.75;14.23;;;;;;;;;;4937769;29;20054;-68
2022/05/11 02:46:29;;;;;;;18.42;13.43;;;;;;;;;;4937674;29;20098;-68
2022/05/11 02:48:57;;;;;;;20.45;15.10;;;;;;;;;;4937208;29;20047;-69
2022/05/11 02:51:26;;;;;;;19.10;14.57;;;;;;;;;;4937472;29;20099;-69
2022/05/11 02:53:55;;;;;;;18.73;14.95;;;;;;;;;;4937302;29;20098;-69
2022/05/11 02:56:26;;;;;;;18.98;14.77;;;;;;;;;;4920679;29;20046;-69
2022/05/11 02:58:55;;;;;;;20.38;14.13;;;;;;;;;;4937466;29;20525;-69
2022/05/11 03:01:26;;;;;;;17.13;14.30;;;;;;;;;;4937227;29;20400;-69
2022/05/11 03:03:54;;;;;;;19.58;15.15;;;;;;;;;;4937090;29;20044;-69
2022/05/11 03:06:52;;;;;;;20.25;15.18;;;;;;;;;;4937431;29;20050;-68
2022/05/11 03:09:24;;;;;;;20.20;15.43;;;;;;;;;;4936867;29;20087;-68
2022/05/11 03:11:52;;;;;;;21.55;15.45;;;;;;;;;;4937543;29;20055;-68
2022/05/11 03:14:20;;;;;;;20.85;16.58;;;;;;;;;;4937187;29;20054;-68
2022/05/11 03:16:47;;;;;;;20.48;16.58;;;;;;;;;;4937135;29;20060;-68
2022/05/11 03:19:15;;;;;;;22.52;16.67;;;;;;;;;;4919661;29;20091;-69
2022/05/11 03:21:43;;;;;;;23.63;16.15;;;;;;;;;;4920180;29;20079;-69
2022/05/11 03:24:11;;;;;;;21.90;15.63;;;;;;;;;;4936926;29;20044;-68
2022/05/11 03:26:41;;;;;;;22.83;16.40;;;;;;;;;;4936648;29;20054;-69
2022/05/11 03:29:09;;;;;;;20.27;16.15;;;;;;;;;;4936741;29;20050;-69
2022/05/11 03:31:36;;;;;;;20.85;15.63;;;;;;;;;;4936206;29;20113;-69
2022/05/11 03:36:54;;;;;;;20.85;15.68;;;;;;;;;;4936756;29;20401;-69
2022/05/11 03:39:22;;;;;;;20.83;15.77;;;;;;;;;;4936424;29;20069;-69
2022/05/11 03:41:51;;;;;;;18.80;15.18;;;;;;;;;;4936339;29;20048;-68
2022/05/11 03:44:19;;;;;;;19.30;15.75;;;;;;;;;;4936730;29;20127;-69
2022/05/11 03:46:48;;;;;;;22.15;15.77;;;;;;;;;;4936390;29;20047;-69
2022/05/11 03:49:15;;;;;;;21.08;16.40;;;;;;;;;;4936156;29;20055;-69
2022/05/11 03:51:44;;;;;;;19.60;15.68;;;;;;;;;;4936506;29;20067;-69
2022/05/11 03:54:11;;;;;;;30.35;20.95;;;;;;;;;;4935849;29;20044;-69
2022/05/11 03:56:40;;;;;;;19.05;15.05;;;;;;;;;;4936126;29;20035;-69
2022/05/11 03:59:08;;;;;;;19.77;14.85;;;;;;;;;;4936249;29;20486;-69
2022/05/11 04:01:36;;;;;;;20.77;15.50;;;;;;;;;;4935979;29;20090;-69
2022/05/11 04:04:05;;;;;;;19.90;15.63;;;;;;;;;;4936454;29;20066;-69
2022/05/11 04:06:34;;;;;;;17.92;14.70;;;;;;;;;;4936124;29;20048;-69
2022/05/11 04:09:02;;;;;;;18.95;14.35;;;;;;;;;;4936099;29;20123;-69
2022/05/11 04:11:33;;;;;;;20.25;15.48;;;;;;;;;;4935984;29;20047;-69
2022/05/11 04:14:01;;;;;;;18.00;14.48;;;;;;;;;;4936019;29;20043;-69
2022/05/11 04:16:28;;;;;;;20.05;15.02;;;;;;;;;;4919336;29;20046;-70
2022/05/11 04:19:02;;;;;;;18.52;14.35;;;;;;;;;;4936202;29;20431;-70
2022/05/11 04:21:29;;;;;;;16.98;13.80;;;;;;;;;;4936052;29;20084;-70
2022/05/11 04:23:57;;;;;;;16.63;13.68;;;;;;;;;;4936394;29;20047;-69
2022/05/11 04:26:24;;;;;;;17.67;13.63;;;;;;;;;;4935597;29;20050;-69
2022/05/11 04:28:54;;;;;;;15.13;12.15;;;;;;;;;;4935313;29;20464;-68
2022/05/11 04:31:22;;;;;;;18.05;13.43;;;;;;;;;;4935655;29;20050;-69
2022/05/11 04:33:50;;;;;;;19.23;12.65;;;;;;;;;;4936032;29;20043;-68
2022/05/11 04:36:20;;;;;;;17.45;12.75;;;;;;;;;;4936163;29;20050;-68
2022/05/11 04:38:50;;;;;;;19.83;11.77;;;;;;;;;;4935455;29;20040;-68
2022/05/11 04:41:19;;;;;;;15.07;12.23;;;;;;;;;;4935286;29;20062;-68
2022/05/11 04:43:53;;;;;;;15.10;11.90;;;;;;;;;;4935412;29;20043;-69
2022/05/11 04:46:26;;;;;;;14.65;11.43;;;;;;;;;;4935641;29;20071;-68
2022/05/11 04:51:41;;;;;;;18.23;11.07;;;;;;;;;;4939218;29;20071;-68
2022/05/11 04:54:14;;;;;;;18.45;13.43;;;;;;;;;;4939685;29;20036;-68
2022/05/11 04:56:42;;;;;;;17.15;13.10;;;;;;;;;;4939786;29;20056;-69
2022/05/11 04:59:34;;;;;;;20.08;13.23;;;;;;;;;;4939514;29;20522;-69
2022/05/11 05:02:04;;;;;;;14.63;12.27;;;;;;;;;;4939527;29;20388;-68
2022/05/11 05:04:33;;;;;;;16.83;12.75;;;;;;;;;;4939223;29;20040;-69
2022/05/11 05:07:04;;;;;;;17.38;12.25;;;;;;;;;;4939391;29;20040;-68
2022/05/11 05:09:32;;;;;;;15.70;11.90;;;;;;;;;;4939263;29;20044;-69
2022/05/11 05:12:01;;;;;;;17.05;12.68;;;;;;;;;;4938845;29;20054;-68
2022/05/11 05:14:31;;;;;;;17.25;11.60;;;;;;;;;;4939246;29;20067;-68
2022/05/11 05:17:07;;;;;;;17.48;11.25;;;;;;;;;;4939188;29;20032;-68
2022/05/11 05:19:37;;;;;;;15.25;10.63;;;;;;;;;;4938424;29;20066;-68
2022/05/11 05:22:06;;;;;;;18.38;13.35;;;;;;;;;;4939160;29;20472;-68
2022/05/11 05:24:34;;;;;;;15.18;10.60;;;;;;;;;;4938804;29;20047;-69
2022/05/11 05:27:04;;;;;;;14.32;10.52;;;;;;;;;;4938780;29;20078;-69
2022/05/11 05:32:19;;;;;;;11.38;9.57;;;;;;;;;;4939182;29;20075;-68
2022/05/11 05:34:48;;;;;;;11.68;9.57;;;;;;;;;;4938675;29;20043;-68
2022/05/11 05:37:16;;;;;;;12.73;9.35;;;;;;;;;;4938423;29;20542;-68
2022/05/11 05:39:45;;;;;;;15.98;9.65;;;;;;;;;;4938966;29;20050;-68
2022/05/11 05:42:22;;;;;;;21.15;10.45;;;;;;;;;;4938587;29;20043;-68
2022/05/11 05:44:50;;;;;;;22.75;11.20;;;;;;;;;;4938353;29;20406;-68
2022/05/11 05:47:18;;;;;;;19.42;10.45;;;;;;;;;;4939404;29;20050;-69
2022/05/11 05:49:45;;;;;;;11.60;9.20;;;;;;;;;;4938541;29;20056;-69
2022/05/11 05:52:17;;;;;;;13.45;11.50;;;;;;;;;;4938656;29;20043;-69
2022/05/11 05:54:46;;;;;;;14.38;10.35;;;;;;;;;;4938665;29;20067;-69
2022/05/11 05:57:17;;;;;;;14.15;10.45;;;;;;;;;;4938121;29;20047;-70
2022/05/11 05:59:47;;;;;;;12.20;10.20;;;;;;;;;;4938290;29;20044;-69
2022/05/11 06:02:16;;;;;;;13.30;11.23;;;;;;;;;;4936989;29;20051;-69
2022/05/11 06:04:50;;;;;;;19.80;9.93;;;;;;;;;;4938518;29;20058;-69
2022/05/11 06:07:19;;;;;;;13.63;9.68;;;;;;;;;;4938192;29;20044;-69
2022/05/11 06:09:47;;;;;;;18.60;10.60;;;;;;;;;;4938317;29;20104;-70
2022/05/11 06:12:15;;;;;;;14.35;9.82;;;;;;;;;;4938105;29;20445;-69
2022/05/11 06:14:44;;;;;;;18.85;10.50;;;;;;;;;;4937864;29;20490;-69
2022/05/11 06:17:15;;;;;;;20.60;11.23;;;;;;;;;;4939173;29;20046;-70
2022/05/11 06:19:43;;;;;;;23.08;16.50;;;;;;;;;;4937499;29;20055;-69
2022/05/11 06:22:12;;;;;;;18.35;12.65;;;;;;;;;;4938289;29;20055;-69
2022/05/11 06:24:41;;;;;;;13.95;11.00;;;;;;;;;;4937788;29;20052;-69
2022/05/11 06:27:15;;;;;;;22.30;13.52;;;;;;;;;;4937993;29;20399;-69
2022/05/11 06:29:57;;;;;;;14.70;10.23;;;;;;;;;;4937637;29;20065;-69
2022/05/11 06:32:27;;;;;;;13.90;9.60;;;;;;;;;;4937800;29;20087;-69
2022/05/11 06:34:57;;;;;;;22.15;14.18;;;;;;;;;;4938331;29;20051;-69
2022/05/11 06:37:25;;;;;;;16.40;10.27;;;;;;;;;;4937546;29;20048;-69
2022/05/11 06:39:53;;;;;;;17.35;10.40;;;;;;;;;;4937569;29;20035;-69
2022/05/11 06:42:20;;;;;;;16.67;9.45;;;;;;;;;;4937725;29;20060;-69
2022/05/11 06:45:13;;;;;;;13.93;8.70;;;;;;;;;;4937646;29;20051;-69
2022/05/11 06:47:42;;;;;;;15.02;9.85;;;;;;;;;;4937504;29;20046;-69
2022/05/11 06:50:12;;;;;;;12.85;8.90;;;;;;;;;;4937220;29;20071;-69
2022/05/11 06:52:39;;;;;;;10.35;8.30;;;;;;;;;;4937086;29;20043;-69
2022/05/11 07:00:49;;;;;;;21.77;8.32;;;;;;;;;;4937332;29;20398;-70
2022/05/11 07:03:17;;;;;;;10.25;7.35;;;;;;;;;;4937008;29;20095;-70
2022/05/11 07:05:47;;;;;;;10.00;7.10;;;;;;;;;;4936946;29;20044;-69
2022/05/11 07:08:14;;;;;;;7.43;6.60;;;;;;;;;;4937712;29;20479;-69
2022/05/11 07:13:32;;;;;;;12.15;7.40;;;;;;;;;;4936166;29;20042;-70
2022/05/11 07:16:00;;;;;;;8.80;6.40;;;;;;;;;;4936977;29;20079;-70
2022/05/11 07:18:29;;;;;;;14.57;6.30;;;;;;;;;;4936911;29;20131;-69
2022/05/11 07:20:59;;;;;;;13.52;7.60;;;;;;;;;;4936653;29;20526;-69
2022/05/11 07:23:31;;;;;;;12.73;6.72;;;;;;;;;;4936998;29;20391;-69
2022/05/11 07:26:03;;;;;;;9.47;6.93;;;;;;;;;;4936651;29;20450;-69
2022/05/11 07:28:33;;;;;;;10.05;6.95;;;;;;;;;;4937029;29;20051;-70
2022/05/11 07:31:06;;;;;;;8.68;6.75;;;;;;;;;;4936568;29;20040;-70
2022/05/11 07:33:33;;;;;;;10.95;6.10;;;;;;;;;;4936724;29;20495;-69
2022/05/11 07:36:02;;;;;;;7.93;5.78;;;;;;;;;;4936523;29;20047;-70
2022/05/11 07:38:31;;;;;;;7.38;5.57;;;;;;;;;;4937133;29;20056;-69
2022/05/11 07:41:04;;;;;;;16.02;5.85;;;;;;;;;;4936666;29;20498;-70
2022/05/11 07:43:32;;;;;;;8.75;6.00;;;;;;;;;;4936016;29;20098;-70
2022/05/11 07:46:01;;;;;;;9.15;5.60;;;;;;;;;;4936342;29;20482;-70
2022/05/11 07:48:29;;;;;;;7.53;5.95;;;;;;;;;;4936752;29;20055;-69
2022/05/11 07:50:58;;;;;;;12.52;6.10;;;;;;;;;;4936465;29;20044;-69
2022/05/11 07:53:27;;;;;;;8.73;6.00;;;;;;;;;;4936375;29;20074;-69
2022/05/11 08:01:27;;;;;;;7.97;5.40;;;;;;;;;;4935789;29;20044;-69
2022/05/11 08:03:55;;;;;;;10.95;5.25;;;;;;;;;;4936509;29;20439;-69
2022/05/11 08:06:24;;;;;;;6.63;5.50;;;;;;;;;;4936143;29;20099;-69
2022/05/11 08:08:52;;;;;;;9.73;5.43;;;;;;;;;;4936389;29;20050;-69
2022/05/11 08:11:20;;;;;;;10.73;5.82;;;;;;;;;;4936267;29;20058;-69
2022/05/11 08:13:48;;;;;;;7.13;5.50;;;;;;;;;;4936174;29;20054;-69
2022/05/11 08:16:18;;;;;;;6.38;5.25;;;;;;;;;;4936002;29;20103;-69
2022/05/11 08:18:46;;;;;;;19.52;10.85;;;;;;;;;;4936362;29;20459;-69
2022/05/11 08:21:15;;;;;;;10.50;5.63;;;;;;;;;;4935938;29;20063;-70
2022/05/11 08:23:45;;;;;;;11.38;5.60;;;;;;;;;;4935182;29;20491;-70
2022/05/11 08:26:12;;;;;;;7.30;4.60;;;;;;;;;;4935867;29;20043;-71
2022/05/11 08:28:42;;;;;;;9.10;4.90;;;;;;;;;;4935997;29;20043;-69
2022/05/11 08:34:00;;;;;;;7.75;5.72;;;;;;;;;;4936133;29;20475;-71
2022/05/11 08:37:04;;;;;;;8.02;4.80;;;;;;;;;;4936780;29;20044;-70
2022/05/11 08:39:32;;;;;;;9.30;4.70;;;;;;;;;;4935832;29;20044;-70
2022/05/11 08:42:24;;;;;;;10.00;4.88;;;;;;;;;;4935536;29;20124;-70
2022/05/11 08:44:53;;;;;;;5.25;4.40;;;;;;;;;;4936444;29;20058;-69
2022/05/11 08:47:30;;;;;;;9.10;4.20;;;;;;;;;;4936074;29;20383;-69
2022/05/11 08:50:11;;;;;;;8.23;4.15;;;;;;;;;;4935911;29;20087;-69
2022/05/11 08:52:43;;;;;;;5.03;3.88;;;;;;;;;;4935550;29;20047;-69
2022/05/11 08:55:15;;;;;;;6.93;4.32;;;;;;;;;;4936342;29;20051;-69
2022/05/11 08:57:43;;;;;;;6.32;4.30;;;;;;;;;;4935566;29;20071;-70
2022/05/11 09:00:14;;;;;;;11.18;5.05;;;;;;;;;;4935546;29;20422;-70
2022/05/11 09:02:58;;;;;;;5.43;4.20;;;;;;;;;;4936240;29;20047;-69
2022/05/11 09:05:29;;;;;;;5.43;4.18;;;;;;;;;;4935593;29;20048;-69
2022/05/11 09:07:57;;;;;;;13.70;4.95;;;;;;;;;;4935353;29;20056;-69
2022/05/11 09:10:30;;;;;;;6.93;4.70;;;;;;;;;;4935824;29;20055;-69
2022/05/11 09:13:04;;;;;;;7.28;4.20;;;;;;;;;;4935435;29;20518;-70
2022/05/11 09:15:55;;;;;;;8.55;4.53;;;;;;;;;;4935543;29;20047;-69
2022/05/11 09:18:33;;;;;;;9.77;4.28;;;;;;;;;;4935340;29;20506;-69
2022/05/11 09:21:05;;;;;;;6.35;4.13;;;;;;;;;;4935247;29;20055;-69
2022/05/11 09:23:38;;;;;;;8.35;5.28;;;;;;;;;;4935313;29;20052;-70
2022/05/11 09:26:11;;;;;;;7.35;4.03;;;;;;;;;;4935637;29;20071;-68
2022/05/11 09:28:42;;;;;;;6.28;3.95;;;;;;;;;;4935515;29;20051;-68
2022/05/11 09:31:34;;;;;;;9.40;4.72;;;;;;;;;;4935564;29;20115;-68
2022/05/11 09:34:05;;;;;;;7.25;4.28;;;;;;;;;;4935392;29;20040;-68
2022/05/11 09:37:18;;;;;;;6.75;3.90;;;;;;;;;;4938533;29;20452;-68
2022/05/11 09:40:11;;;;;;;5.78;4.68;;;;;;;;;;4938882;29;20047;-69
2022/05/11 09:42:58;;;;;;;11.88;5.95;;;;;;;;;;4938746;29;20051;-68
2022/05/11 09:45:38;;;;;;;7.85;4.60;;;;;;;;;;4938590;29;20051;-68
2022/05/11 09:48:13;;;;;;;7.57;4.57;;;;;;;;;;4938698;29;20405;-68
2022/05/11 09:50:43;;;;;;;7.28;3.90;;;;;;;;;;4921753;29;20051;-68
2022/05/11 09:53:40;;;;;;;8.70;4.28;;;;;;;;;;4938479;29;20083;-68
2022/05/11 09:56:36;;;;;;;8.48;6.18;;;;;;;;;;4928098;29;20063;-68
2022/05/11 09:59:28;;;;;;;9.98;4.60;;;;;;;;;;4921545;29;20491;-69
2022/05/11 10:02:15;;;;;;;6.15;4.50;;;;;;;;;;4938123;29;20509;-69
2022/05/11 10:05:02;;;;;;;8.93;4.55;;;;;;;;;;4923107;29;20103;-68
2022/05/11 10:07:32;;;;;;;7.57;3.58;;;;;;;;;;4938269;29;20138;-69
2022/05/11 10:10:10;;;;;;;7.10;4.30;;;;;;;;;;4938461;29;20055;-69
2022/05/11 10:12:40;;;;;;;8.40;5.05;;;;;;;;;;4938500;29;20048;-69
2022/05/11 10:24:21;;;;;;;6.50;3.90;;;;;;;;;;4903343;29;20538;-69
2022/05/11 10:30:58;;;;;;;8.77;3.67;;;;;;;;;;4937855;29;20086;-70
2022/05/11 10:33:36;;;;;;;7.13;3.75;;;;;;;;;;4937891;29;20103;-69
2022/05/11 10:36:18;;;;;;;8.65;3.70;;;;;;;;;;4938024;29;20048;-69
2022/05/11 10:38:56;;;;;;;12.23;10.40;;;;;;;;;;4937385;29;20513;-69
2022/05/11 10:41:25;;;;;;;8.90;4.45;;;;;;;;;;4937592;29;20048;-69
2022/05/11 10:43:53;;;;;;;11.70;4.30;;;;;;;;;;4937529;29;20056;-69
2022/05/11 10:46:28;;;;;;;11.43;4.78;;;;;;;;;;4937212;29;20537;-69
2022/05/11 10:49:06;;;;;;;6.45;4.53;;;;;;;;;;4937750;29;20055;-69
2022/05/11 10:51:46;;;;;;;7.45;3.80;;;;;;;;;;4937406;29;20047;-69
2022/05/11 10:54:41;;;;;;;5.85;3.50;;;;;;;;;;4937920;29;20044;-69
2022/05/11 10:57:28;;;;;;;4.68;3.25;;;;;;;;;;4937463;29;20043;-70
2022/05/11 11:00:08;;;;;;;6.35;3.83;;;;;;;;;;4937202;29;20068;-70
2022/05/11 11:02:44;;;;;;;5.38;4.00;;;;;;;;;;4936987;29;20123;-70
2022/05/11 11:05:34;;;;;;;7.85;4.28;;;;;;;;;;4937523;29;20095;-69
2022/05/11 11:08:10;;;;;;;7.22;4.13;;;;;;;;;;4920575;29;20490;-69
2022/05/11 11:10:42;;;;;;;6.68;3.95;;;;;;;;;;4937149;29;20074;-69
2022/05/11 11:13:15;;;;;;;8.70;4.00;;;;;;;;;;4937235;29;20062;-70
2022/05/11 11:15:44;;;;;;;7.35;3.60;;;;;;;;;;4936850;29;20075;-70
2022/05/11 11:18:14;;;;;;;7.70;3.55;;;;;;;;;;4937061;29;20057;-69
2022/05/11 11:20:45;;;;;;;5.20;3.92;;;;;;;;;;4937308;29;20060;-69
2022/05/11 11:23:16;;;;;;;9.43;3.85;;;;;;;;;;4936838;29;20036;-69
2022/05/11 11:25:48;;;;;;;4.28;2.97;;;;;;;;;;4919783;29;20067;-69
2022/05/11 11:28:18;;;;;;;7.55;3.25;;;;;;;;;;4936982;29;20147;-70
2022/05/11 11:30:59;;;;;;;7.70;3.40;;;;;;;;;;4936632;29;20124;-70
2022/05/11 11:33:31;;;;;;;6.32;3.25;;;;;;;;;;4936693;29;20043;-70
2022/05/11 11:36:01;;;;;;;6.35;2.92;;;;;;;;;;4936693;29;20074;-70
2022/05/11 11:38:30;;;;;;;4.72;3.30;;;;;;;;;;4936583;29;20050;-70
2022/05/11 11:41:17;;;;;;;8.95;3.90;;;;;;;;;;4936800;29;20046;-70
2022/05/11 11:43:51;;;;;;;6.63;3.75;;;;;;;;;;4936307;29;20102;-70
2022/05/11 11:46:27;;;;;;;4.68;3.40;;;;;;;;;;4936342;29;20071;-70
2022/05/11 11:49:06;;;;;;;5.68;3.03;;;;;;;;;;4919335;29;20081;-70
2022/05/11 11:51:53;;;;;;;7.10;3.45;;;;;;;;;;4936880;29;20069;-70
2022/05/11 11:54:36;;;;;;;6.13;3.25;;;;;;;;;;4936083;29;20067;-70
2022/05/11 11:57:07;;;;;;;3.90;3.00;;;;;;;;;;4935899;29;20080;-72
2022/05/11 11:59:37;;;;;;;11.40;4.35;;;;;;;;;;4935904;29;20123;-70
2022/05/11 12:02:05;;;;;;;7.68;3.67;;;;;;;;;;4936326;29;20048;-70
2022/05/11 12:04:35;;;;;;;6.00;4.28;;;;;;;;;;4936004;29;20036;-69
2022/05/11 12:16:01;;;;;;;5.40;3.40;;;;;;;;;;4936483;29;20402;-70
2022/05/11 12:18:44;;;;;;;4.72;3.30;;;;;;;;;;4936545;29;20050;-70
2022/05/11 12:21:27;;;;;;;4.22;3.13;;;;;;;;;;4935736;29;20055;-70
2022/05/11 12:24:01;;;;;;;8.82;3.50;;;;;;;;;;4935455;29;20123;-70
2022/05/11 12:26:33;;;;;;;5.93;3.05;;;;;;;;;;4935894;29;20126;-70
2022/05/11 12:31:59;;;;;;;13.63;3.38;;;;;;;;;;4935706;29;20052;-70
2022/05/11 12:34:30;;;;;;;7.13;3.35;;;;;;;;;;4935791;29;20040;-70
2022/05/11 12:37:03;;;;;;;5.18;2.80;;;;;;;;;;4935717;29;20040;-71
2022/05/11 12:39:35;;;;;;;6.65;3.60;;;;;;;;;;4935767;29;20044;-69
2022/05/11 12:42:07;;;;;;;4.25;2.80;;;;;;;;;;4935709;29;20051;-76
2022/05/11 12:44:38;;;;;;;5.43;4.05;;;;;;;;;;4935674;29;20075;-81
2022/05/11 12:47:08;;;;;;;5.97;3.28;;;;;;;;;;4936028;29;20456;-77
2022/05/11 12:49:37;;;;;;;6.95;3.38;;;;;;;;;;4935465;29;20063;-76
2022/05/11 12:52:08;;;;;;;9.15;3.88;;;;;;;;;;4935982;29;20481;-77
2022/05/11 12:54:37;;;;;;;6.63;3.22;;;;;;;;;;4935569;29;20083;-77
2022/05/11 12:57:17;;;;;;;5.68;3.00;;;;;;;;;;4935867;29;20036;-76
2022/05/11 12:59:53;;;;;;;9.20;3.20;;;;;;;;;;4936007;29;20082;-72
2022/05/11 13:02:25;;;;;;;6.35;3.45;;;;;;;;;;4935194;29;20483;-72
2022/05/11 13:04:55;;;;;;;4.25;3.15;;;;;;;;;;4935230;29;20056;-72
2022/05/11 13:07:25;;;;;;;4.28;3.00;;;;;;;;;;4916998;29;20447;-72
2022/05/11 13:09:54;;;;;;;3.50;3.13;;;;;;;;;;4916080;29;20059;-72
2022/05/11 13:12:22;;;;;;;5.35;4.03;;;;;;;;;;4927985;29;20046;-72
2022/05/11 13:14:52;;;;;;;3.72;2.80;;;;;;;;;;4938633;29;20513;-72
2022/05/11 13:17:22;;;;;;;5.93;3.10;;;;;;;;;;4938591;29;20044;-72
2022/05/11 13:19:57;;;;;;;5.05;2.65;;;;;;;;;;4938160;29;20367;-73
2022/05/11 13:22:28;;;;;;;3.22;2.63;;;;;;;;;;4935995;29;20043;-71
2022/05/11 13:25:08;;;;;;;6.18;2.85;;;;;;;;;;4938519;29;20067;-72
2022/05/11 13:27:43;;;;;;;6.78;3.05;;;;;;;;;;4924519;29;20503;-72
2022/05/11 13:30:30;;;;;;;7.18;4.13;;;;;;;;;;4919767;29;20048;-72
2022/05/11 13:33:22;;;;;;;13.48;8.43;;;;;;;;;;4919508;29;20407;-72
2022/05/11 13:36:04;;;;;;;9.10;4.75;;;;;;;;;;4919879;29;20048;-72
2022/05/11 13:38:35;;;;;;;7.82;3.25;;;;;;;;;;4919670;29;20104;-72
2022/05/11 13:41:08;;;;;;;4.00;2.67;;;;;;;;;;4917898;29;20099;-71
2022/05/11 13:43:37;;;;;;;10.50;5.13;;;;;;;;;;4922357;29;20604;-73
2022/05/11 13:46:06;;;;;;;7.45;4.93;;;;;;;;;;4933981;29;20044;-74
2022/05/11 13:48:42;;;;;;;10.93;6.85;;;;;;;;;;4935543;29;20127;-72
2022/05/11 13:51:21;;;;;;;9.50;6.40;;;;;;;;;;4919291;29;20180;-72
2022/05/11 13:53:57;;;;;;;6.95;3.00;;;;;;;;;;4919234;29;20064;-72
2022/05/11 13:56:30;;;;;;;10.23;5.88;;;;;;;;;;4925209;29;20044;-73
2022/05/11 13:59:09;;;;;;;6.00;3.17;;;;;;;;;;4938719;29;20040;-74
2022/05/11 14:01:37;;;;;;;9.02;4.07;;;;;;;;;;4937937;29;20278;-73
2022/05/11 14:04:10;;;;;;;9.73;6.55;;;;;;;;;;4938077;29;20138;-73
2022/05/11 14:09:56;;;;;;;6.95;3.75;;;;;;;;;;4938474;29;20122;-73
2022/05/11 14:12:25;;;;;;;5.10;3.47;;;;;;;;;;4937288;29;20123;-74
2022/05/11 14:14:56;;;;;;;9.20;5.53;;;;;;;;;;4937596;29;20054;-74
2022/05/11 14:17:35;;;;;;;6.85;4.10;;;;;;;;;;4937952;29;20047;-74
2022/05/11 14:20:04;;;;;;;7.18;2.92;;;;;;;;;;4938168;29;20043;-75
2022/05/11 14:22:35;;;;;;;6.50;3.15;;;;;;;;;;4936184;29;20091;-73
2022/05/11 14:25:16;;;;;;;6.93;4.00;;;;;;;;;;4937703;29;20459;-73
2022/05/11 14:28:29;;;;;;;5.30;3.63;;;;;;;;;;4937648;29;20050;-73
2022/05/11 14:31:02;;;;;;;7.30;4.70;;;;;;;;;;4937897;29;20043;-74
2022/05/11 14:33:39;;;;;;;5.57;3.95;;;;;;;;;;4938166;29;20039;-73
2022/05/11 14:36:08;;;;;;;6.30;3.15;;;;;;;;;;4937513;29;20406;-69
2022/05/11 14:38:38;;;;;;;3.97;2.70;;;;;;;;;;4937522;29;20483;-70
2022/05/11 14:41:10;;;;;;;4.88;3.00;;;;;;;;;;4937755;29;20044;-73
2022/05/11 14:43:44;;;;;;;7.97;3.38;;;;;;;;;;4937638;29;20051;-73
2022/05/11 14:46:23;;;;;;;7.80;3.70;;;;;;;;;;4929315;29;20067;-71
2022/05/11 14:48:51;;;;;;;4.53;3.33;;;;;;;;;;4935278;29;20406;-71
2022/05/11 14:51:19;;;;;;;6.40;3.65;;;;;;;;;;4936631;29;20063;-71
2022/05/11 14:53:47;;;;;;;7.28;3.20;;;;;;;;;;4937011;29;20043;-72
2022/05/11 14:56:16;;;;;;;6.20;3.70;;;;;;;;;;4937821;29;20044;-72
2022/05/11 15:04:29;;;;;;;15.00;9.02;;;;;;;;;;4936865;29;20122;-72
2022/05/11 15:06:58;;;;;;;10.73;7.15;;;;;;;;;;4936763;29;20036;-72
2022/05/11 15:09:26;;;;;;;10.68;6.95;;;;;;;;;;4927105;29;20120;-71
2022/05/11 15:14:45;;;;;;;7.78;5.38;;;;;;;;;;4918314;29;20044;-72
2022/05/11 15:17:20;;;;;;;11.05;8.05;;;;;;;;;;4918373;29;20422;-72
2022/05/11 15:20:08;;;;;;;;;;;;;;;;;;4917515;29;20511;-72
2022/05/11 15:22:37;;;;;;;8.98;4.47;;;;;;;;;;4917706;29;19923;-72
2022/05/11 15:25:13;;;;;;;13.85;6.75;;;;;;;;;;4917759;29;20055;-72
2022/05/11 15:27:42;;;;;;;7.68;5.00;;;;;;;;;;4917343;29;20130;-72
2022/05/11 15:30:10;;;;;;;15.30;10.82;;;;;;;;;;4917523;29;20052;-72
2022/05/11 15:32:39;;;;;;;42.50;30.58;;;;;;;;;;4930359;29;20571;-73
2022/05/11 15:35:08;;;;;;;16.90;12.57;;;;;;;;;;4933547;29;20075;-72
2022/05/11 15:37:36;;;;;;;10.07;7.65;;;;;;;;;;4919329;29;20040;-72
2022/05/11 15:40:07;;;;;;;8.43;6.65;;;;;;;;;;4936435;29;20071;-72
2022/05/11 15:42:37;;;;;;;19.48;14.40;;;;;;;;;;4936580;29;20139;-72
2022/05/11 15:45:06;;;;;;;15.55;12.50;;;;;;;;;;4936546;29;20440;-72
2022/05/11 15:47:36;;;;;;;38.08;29.58;;;;;;;;;;4935384;29;20082;-72
2022/05/11 15:50:04;;;;;;;13.40;8.95;;;;;;;;;;4936542;29;20118;-72
2022/05/11 15:52:34;;;;;;;16.65;11.57;;;;;;;;;;4936146;29;20062;-72
2022/05/11 15:55:08;;;;;;;11.18;7.63;;;;;;;;;;4936463;29;20054;-72
2022/05/11 15:57:48;;;;;;;10.15;5.38;;;;;;;;;;4936395;29;20079;-72
2022/05/11 16:00:44;;;;;;;8.48;4.40;;;;;;;;;;4935974;29;20043;-72
2022/05/11 16:03:18;;;;;;;17.83;7.03;;;;;;;;;;4934481;29;20063;-73
2022/05/11 16:05:47;;;;;;;31.50;22.17;;;;;;;;;;4935801;29;20047;-73
2022/05/11 16:08:15;;;;;;;12.95;6.57;;;;;;;;;;4935760;29;20479;-72
2022/05/11 16:10:43;;;;;;;6.13;4.68;;;;;;;;;;4935300;29;20051;-73